TimeCDT,TemperatureF,Dew PointF,Humidity,Sea Level PressureIn,VisibilityMPH,Wind Direction,Wind SpeedMPH,Gust SpeedMPH,PrecipitationIn,Events,Conditions,WindDirDegrees,DateUTC
12:15 AM,68.0,62.6,83,-9999,10.0,NNW,6.9,-,N/A,,Clear,340,2012-10-16 05:15:00
12:35 AM,66.2,62.6,88,-9999,10.0,NNW,5.8,-,N/A,,Clear,340,2012-10-16 05:35:00
12:55 AM,66.2,62.6,88,-9999,10.0,North,4.6,-,N/A,,Clear,350,2012-10-16 05:55:00
1:15 AM,69.8,62.6,78,-9999,10.0,North,6.9,-,N/A,,Clear,10,2012-10-16 06:15:00
1:35 AM,71.6,62.6,73,-9999,10.0,NNE,6.9,-,N/A,,Clear,30,2012-10-16 06:35:00
1:55 AM,71.6,62.6,73,-9999,10.0,North,6.9,-,N/A,,Clear,10,2012-10-16 06:55:00
2:15 AM,71.6,62.6,73,-9999,10.0,North,5.8,-,N/A,,Clear,10,2012-10-16 07:15:00
2:35 AM,69.8,62.6,78,-9999,10.0,NNE,4.6,-,N/A,,Clear,20,2012-10-16 07:35:00
2:55 AM,69.8,64.4,83,-9999,10.0,NNE,4.6,-,N/A,,Clear,20,2012-10-16 07:55:00
3:15 AM,69.8,64.4,83,-9999,10.0,North,5.8,-,N/A,,Clear,10,2012-10-16 08:15:00
3:35 AM,69.8,64.4,83,-9999,10.0,NNE,3.5,-,N/A,,Clear,20,2012-10-16 08:35:00
3:55 AM,68.0,64.4,88,-9999,10.0,NNE,3.5,-,N/A,,Clear,20,2012-10-16 08:55:00
4:15 AM,68.0,64.4,88,-9999,10.0,NNE,3.5,-,N/A,,Clear,20,2012-10-16 09:15:00
4:35 AM,68.0,64.4,88,-9999,10.0,NNE,4.6,-,N/A,,Clear,30,2012-10-16 09:35:00
4:55 AM,68.0,62.6,83,-9999,10.0,NNE,4.6,-,N/A,,Clear,30,2012-10-16 09:55:00
5:15 AM,69.8,62.6,78,-9999,10.0,NNE,4.6,-,N/A,,Clear,30,2012-10-16 10:15:00
5:35 AM,69.8,62.6,78,-9999,10.0,NE,5.8,-,N/A,,Clear,40,2012-10-16 10:35:00
5:55 AM,69.8,62.6,78,-9999,10.0,NE,5.8,-,N/A,,Clear,40,2012-10-16 10:55:00
6:15 AM,69.8,62.6,78,-9999,10.0,NE,4.6,-,N/A,,Clear,50,2012-10-16 11:15:00
6:35 AM,69.8,62.6,78,-9999,10.0,NE,4.6,-,N/A,,Clear,40,2012-10-16 11:35:00
6:55 AM,69.8,62.6,78,-9999,10.0,NE,4.6,-,N/A,,Clear,40,2012-10-16 11:55:00
7:15 AM,69.8,62.6,78,-9999,10.0,NE,4.6,-,N/A,,Clear,40,2012-10-16 12:15:00
7:35 AM,69.8,64.4,83,-9999,10.0,NE,5.8,-,N/A,,Clear,40,2012-10-16 12:35:00
7:55 AM,71.6,64.4,78,-9999,10.0,NE,6.9,-,N/A,,Clear,40,2012-10-16 12:55:00
8:15 AM,71.6,64.4,78,-9999,10.0,NE,5.8,-,N/A,,Clear,40,2012-10-16 13:15:00
8:35 AM,73.4,64.4,73,-9999,10.0,NE,5.8,-,N/A,,Clear,40,2012-10-16 13:35:00
8:55 AM,75.2,64.4,69,-9999,10.0,ENE,8.1,-,N/A,,Clear,60,2012-10-16 13:55:00
9:15 AM,77.0,64.4,65,-9999,10.0,NE,9.2,-,N/A,,Clear,50,2012-10-16 14:15:00
9:35 AM,77.0,62.6,61,-9999,10.0,NE,10.4,-,N/A,,Clear,50,2012-10-16 14:35:00
9:55 AM,78.8,62.6,57,-9999,10.0,ENE,10.4,-,N/A,,Clear,70,2012-10-16 14:55:00
10:15 AM,78.8,62.6,57,-9999,10.0,ENE,11.5,17.3,N/A,,Clear,70,2012-10-16 15:15:00
10:35 AM,78.8,60.8,54,-9999,10.0,ENE,9.2,-,N/A,,Clear,70,2012-10-16 15:35:00
10:55 AM,80.6,60.8,51,-9999,10.0,East,9.2,-,N/A,,Clear,80,2012-10-16 15:55:00
11:15 AM,80.6,59.0,48,-9999,10.0,East,9.2,-,N/A,,Clear,100,2012-10-16 16:15:00
11:35 AM,80.6,59.0,48,-9999,10.0,ENE,8.1,-,N/A,,Clear,70,2012-10-16 16:35:00
11:55 AM,80.6,59.0,48,-9999,10.0,East,9.2,-,N/A,,Clear,90,2012-10-16 16:55:00
12:15 PM,80.6,59.0,48,-9999,10.0,East,10.4,-,N/A,,Clear,80,2012-10-16 17:15:00
12:35 PM,80.6,57.2,45,-9999,10.0,East,4.6,-,N/A,,Clear,80,2012-10-16 17:35:00
12:55 PM,80.6,57.2,45,-9999,10.0,East,8.1,-,N/A,,Clear,90,2012-10-16 17:55:00
1:15 PM,82.4,57.2,42,-9999,10.0,East,9.2,-,N/A,,Clear,90,2012-10-16 18:15:00
1:35 PM,82.4,55.4,39,-9999,10.0,ENE,9.2,-,N/A,,Clear,70,2012-10-16 18:35:00
1:55 PM,82.4,57.2,42,-9999,10.0,East,8.1,-,N/A,,Clear,80,2012-10-16 18:55:00
2:15 PM,80.6,57.2,45,-9999,10.0,East,9.2,-,N/A,,Clear,90,2012-10-16 19:15:00
2:35 PM,82.4,59.0,45,-9999,10.0,ESE,11.5,-,N/A,,Clear,110,2012-10-16 19:35:00
3:15 PM,80.6,59.0,48,-9999,10.0,East,6.9,-,N/A,,Clear,100,2012-10-16 20:15:00
3:55 PM,80.6,59.0,48,-9999,10.0,East,6.9,-,N/A,,Clear,80,2012-10-16 20:55:00
4:15 PM,78.8,60.8,54,-9999,10.0,East,9.2,-,N/A,,Clear,80,2012-10-16 21:15:00
4:55 PM,77.0,60.8,57,-9999,10.0,East,3.5,-,N/A,,Clear,90,2012-10-16 21:55:00
5:15 PM,77.0,60.8,57,-9999,10.0,East,5.8,-,N/A,,Clear,80,2012-10-16 22:15:00
5:35 PM,77.0,60.8,57,-9999,10.0,East,5.8,-,N/A,,Clear,80,2012-10-16 22:35:00
5:55 PM,77.0,62.6,61,-9999,10.0,East,5.8,-,N/A,,Clear,80,2012-10-16 22:55:00
6:15 PM,77.0,62.6,61,-9999,10.0,ENE,6.9,-,N/A,,Clear,70,2012-10-16 23:15:00
6:35 PM,75.2,62.6,65,-9999,10.0,ENE,4.6,-,N/A,,Clear,70,2012-10-16 23:35:00
6:55 PM,75.2,62.6,65,-9999,10.0,ENE,4.6,-,N/A,,Clear,60,2012-10-16 23:55:00
7:15 PM,75.2,62.6,65,-9999,10.0,ENE,5.8,-,N/A,,Clear,60,2012-10-17 00:15:00
7:35 PM,75.2,62.6,65,-9999,7.0,NE,5.8,-,N/A,Rain,Light Rain,50,2012-10-17 00:35:00
7:55 PM,75.2,62.6,65,-9999,10.0,NE,4.6,-,N/A,,Light Drizzle,40,2012-10-17 00:55:00
8:15 PM,73.4,64.4,73,-9999,10.0,NE,4.6,-,N/A,Rain,Light Rain,50,2012-10-17 01:15:00
8:35 PM,73.4,64.4,73,-9999,10.0,ENE,8.1,-,N/A,,Clear,70,2012-10-17 01:35:00
8:55 PM,75.2,64.4,69,-9999,10.0,ENE,6.9,-,N/A,Rain,Rain,60,2012-10-17 01:55:00
9:15 PM,73.4,64.4,73,-9999,10.0,ENE,6.9,-,N/A,,Clear,70,2012-10-17 02:15:00
9:35 PM,75.2,64.4,69,-9999,10.0,ENE,4.6,-,N/A,,Clear,70,2012-10-17 02:35:00
9:55 PM,75.2,64.4,69,-9999,7.0,ENE,4.6,-,N/A,,Clear,70,2012-10-17 02:55:00
10:15 PM,73.4,64.4,73,-9999,10.0,East,6.9,-,N/A,,Clear,80,2012-10-17 03:15:00
10:35 PM,75.2,64.4,69,-9999,10.0,East,5.8,-,N/A,,Clear,80,2012-10-17 03:35:00
10:55 PM,75.2,64.4,69,-9999,10.0,East,6.9,-,N/A,,Clear,80,2012-10-17 03:55:00
11:15 PM,75.2,64.4,69,-9999,10.0,East,5.8,-,N/A,,Clear,90,2012-10-17 04:15:00
11:35 PM,75.2,64.4,69,-9999,10.0,SE,8.1,-,N/A,,Clear,130,2012-10-17 04:35:00
11:55 PM,73.4,68.0,83,-9999,10.0,ESE,9.2,-,N/A,Rain,Light Rain,120,2012-10-17 04:55:00